Pagrindinis puslapis
METAR-TAF:

METAR-TAF

Oro uostai :

Dubrovnikas, Kroatija

platuma: 42-34N, ilguma: 018-16E, Aukštis: 157 m

Dabartinis oras

Ataskaita buvo paskelbta 9 minutes, ne 21:30 UTC
Vėjas 4 kt iš Šiaurės Rytų, svyruoja nuo Vakarų/Šiaurės Vakarų ir Rytų
Temperatūra 8°C
Drėgmė 87%
Slėgis 1018 hPa
Matomumas 10 km arba daugiau
nėra debesų žemiau 1500 m ir nėra kamuolinių lietaus debesų

METAR: LDDU 272130Z 05004KT 300V080 CAVOK 08/06 Q1018

Laikas: 22:39 (21:39 UTC)

Prognozė

Ataskaita buvo paskelbta 4 valandos ir 5 minutes, ne 17:34 UTC
Prognozė galioja nuo 27 metu 18 UTC su 28 metu 18 UTC
Vėjas 5 kt iš Rytų
Matomumas 10 km arba daugiau
nėra debesų žemiau 1500 m ir nėra kamuolinių lietaus debesų
Tapsmas
nuo 28 metu 08 UTC su 28 metu 10 UTC
Vėjas 10 kt iš Pietų/Pietryčių
Laikinai
nuo 28 metu 10 UTC su 28 metu 18 UTC
lietus

TAF: LDDU 271734Z 2718/2818 09005KT CAVOK TX13/2813Z TN06/2805Z BECMG 2808/2810 15010KT TEMPO 2810/2818 RA

Orai ataskaitas ir orų prognozės (METAR, TAF).

turimą stotys yra geltonos ir raudonos taškus žemėlapyje.

Perkelti pele per norėdami pamatyti stoties vardą.

Tada spustelėkite, norėdami matyti oro stebėjimo ir prognozės.

Norėdami pakeisti žemėlapį: spustelėkite ant žalios mygtukų su juodo kryžiaus žemyn,; žalią mygtuką su brūkšneliu, jei norite nutolinti; arba žalių rodyklių gretimoms žemėlapius.


METAR-TAF: